Tiempo atmosférico en la estación meteorológica de Saelices El Chico, Salamanca (680 m.)



Fecha
DESCASC
Temp. máxima en grados centígrados (hora)
DESCASC
Temp. mínima en grados centígrados (hora)
DESCASC
Temp. media en grados centígrados
DESCASC
Racha de viento máxima en m/sg (hora)
DESCASC
Velocidad máxima media en intervalos de 10 minutos(hora)
DESCASC
Precipitaciones diarias en mm
DESCASC
Precipitaciones de 00:00 a 06:00 en mm
DESCASC
Precipitaciones de 06:00 a 12:00 en mm
DESCASC
Precipitaciones de 12:00 a 18:00 en mm
DESCASC
Precipitaciones de 18:00 a 24:00 en mm
DESCASC
22-01-2020 10 (16:00) 4 (01:40) 7 14.72 (02:00) 10 (02:00) 0 0 0 0 0
21-01-2020 6.1 (15:10) -0.2 (09:10) 2.9 19.17 (03:20) 13.61 (03:20) 0 0 0 0 0
20-01-2020 4.7 (16:30) 0.5 (07:50) 2.6 23.89 (03:10) 16.67 (04:50) 0 0 0 0 0
19-01-2020 9.8 (15:40) 2.5 (00:00) 6.2 22.5 (16:50) 15.28 (23:50) 0 0 0 0 0
18-01-2020 13.4 (15:10) 5.1 (00:00) 9.2 15.83 (20:30) 7.22 (20:30) 8.2 6.6 0.6 0 1
17-01-2020 12.4 (16:00) 5.1 (00:00) 8.7 8.06 (13:30) 4.17 (13:40) 1.6 0.4 1.2 0 0
16-01-2020 12.2 (15:00) 6.7 (00:00) 9.4 14.72 (13:20) 8.06 (13:10) 0.8 0 0 0 0.8
15-01-2020 11.6 (14:30) 6.9 (00:00) 9.3 13.89 (01:30) 7.5 (04:00) 1.6 0.2 1.2 0 0.2
14-01-2020 7.9 (23:59) 0.8 (00:00) 4.4 14.72 (23:50) 7.5 (23:50) 0.2 0 0 0 0.2
13-01-2020 11.5 (15:30) -4.1 (-00:0) 3.7 7.22 (14:20) 4.44 (14:30) 0 0 0 0 0
12-01-2020 12.3 (16:00) -4.7 (08:40) 3.8 5.28 (16:50) 3.06 (16:50) 0 0 0 0 0
11-01-2020 11.7 (17:40) -3.4 (-00:0) 4.1 6.39 (00:20) 4.72 (00:10) 0 0 0 0 0
10-01-2020 9.2 (15:20) -1.1 (-00:0) 4 10.83 (16:10) 7.22 (16:10) 0 0 0 0 0
09-01-2020 13 (16:30) -2.3 (-00:0) 5.4 11.67 (18:40) 6.39 (16:40) 0 0 0 0 0
08-01-2020 2.5 (16:30) -2.8 (-00:0) -0.1 3.89 (05:50) 2.22 (06:00) 0 0 0 0 0
07-01-2020 6 (16:20) -2.5 (-00:0) 1.8 3.61 (21:30) 2.22 (15:10) 0 0 0 0 0
06-01-2020 8.2 (15:10) -1.5 (-00:0) 3.3 7.22 (14:20) 3.61 (15:20) 0 0 0 0 0
05-01-2020 4 (16:20) -0.7 (-00:0) 1.7 4.72 (17:10) 2.5 (01:00) 0 0 0 0 0
04-01-2020 8.5 (15:30) 2.4 (00:00) 5.5 13.33 (19:30) 8.89 (19:30) 0 0 0 0 0
03-01-2020 10.4 (15:20) 1.1 (00:00) 5.7 6.11 (15:50) 3.61 (18:50) 0 0 0 0 0
02-01-2020 14.3 (15:20) -2.4 (-00:0) 6 6.11 (16:10) 3.06 (09:00) 0 0 0 0 0
01-01-2020 16.4 (15:50) -2.9 (-00:0) 6.7 3.33 (18:00) 2.5 (18:20) 0 0 0 0 0
31-12-2019 15.4 (16:30) -3.1 (-00:0) 6.1 3.61 (13:30) 2.78 (02:50) 0 0 0 0 0
30-12-2019 14.5 (16:30) -3.9 (-00:0) 5.3 3.06 (22:50) 2.5 (22:50) 0 0 0 0 0
29-12-2019 14.3 (17:00) -3.1 (-00:0) 5.6 3.89 (19:30) 2.22 (19:30) 0 0 0 0 0
28-12-2019 8.3 (16:10) -0.7 (-00:0) 3.8 3.33 (13:10) 1.94 (16:30) 0 0 0 0 0
27-12-2019 8.4 (16:00) 2 (00:00) 5.2 4.72 (05:20) 3.33 (05:20) 0 0 0 0 0

Gráficas

Temp. máximas Temp. mínimas Temp. medias Precipitaciones Rachas de viento máximas Velocidades máximas media en intervalos de 10 minutos

Datos horarios

Fecha y hora oficial Temperatura (ºC) Velocidad del viento (km/h) Dirección del viento Racha (km/h) Dirección de racha Precipitación (mm) Presión (hPa) Tendencia (hPa) Humedad (%)
2020-01-25 23:00:00 2.5 5 Oeste 8 Oeste 0 940 1.7 90
2020-01-25 22:00:00 3.5 4 Oeste 5 Oeste 0 939.3 1.6 89
2020-01-25 21:00:00 4.3 4 Nordeste 6 Este 0 938.9 1.9 87
2020-01-25 20:00:00 5.6 3 Nordeste 4 Nordeste 0 938.3 1.5 83
2020-01-25 19:00:00 6.6 2 Sudoeste 10 Norte 0 937.7 1.5 83
2020-01-25 18:00:00 7.1 7 Norte 16 Norte 0.2 937 0.8 82
2020-01-25 17:00:00 7.5 11 Noroeste 19 Noroeste 0.2 936.8 0 80
2020-01-25 16:00:00 9.1 5 Oeste 8 Oeste 0 936.2 -1.1 70
2020-01-25 15:00:00 9.7 3 Nordeste 9 Nordeste 0 936.2 -1.4 67
2020-01-25 14:00:00 8.2 4 Nordeste 7 Nordeste 0.2 936.8 -0.5 75
2020-01-25 13:00:00 8 3 Este 9 Nordeste 0 937.3 0.3 75
2020-01-25 12:00:00 7.3 2 Este 8 Este 0 937.6 1 82
2020-01-25 11:00:00 6.1 3 Noroeste 13 Norte 0.4 937.3 1.3 90
2020-01-25 10:00:00 5.1 4 Oeste 9 Noroeste 0.8 937 1.2 90
2020-01-25 09:00:00 4.6 4 Norte 6 Norte 0.2 936.6 0.8 90
2020-01-25 08:00:00 4.6 4 Norte 6 Norte 0.4 936 0.2 89
2020-01-25 07:00:00 4.6 2 Este 6 Este 0 935.8 -0.3 88
2020-01-25 06:00:00 4.7 2 Sudeste 9 Noroeste 0 935.8 -0.7 87
2020-01-25 05:00:00 4.9 0 Calma 5 Sudeste 0 935.8 -1.2 84
2020-01-25 04:00:00 5.5 3 Sur 13 Sudeste 0 936.1 -1.5 81
2020-01-25 03:00:00 6.6 10 Este 19 Este 0 936.5 -1.3 76
2020-01-25 02:00:00 6.7 14 Este 20 Este 0 937 -1.2 76
2020-01-25 01:00:00 6.3 4 Este 14 Este 0 937.6 -0.9 78
2020-01-25 00:00:00 6.5 8 Este 15 Este 0 937.8 -0.6 76
2020-01-24 23:00:00 5.7 8 Este 13 Este 0 938.2 -0.3 82
2020-01-24 22:00:00 4.7 5 Este 12 Sudeste 0 938.5 0.2 85
2020-01-24 21:00:00 5.1 4 Sudeste 10 Nordeste 0 938.4 0.1 81
2020-01-24 20:00:00 6.2 4 Este 9 Nordeste 0 938.5 0.2 79
2020-01-24 19:00:00 7.7 3 Este 6 Sudeste 0 938.3 -0.2 74
2020-01-24 18:00:00 8.7 4 Sur 14 Sudeste 0 938.3 -0.6 71
2020-01-24 17:00:00 9.2 7 Sur 15 Sur 0 938.3 -1 67
2020-01-24 16:00:00 9.4 9 Sudeste 21 Sudeste 0 938.5 -1.6 68
2020-01-24 15:00:00 9.5 13 Sudeste 22 Sudeste 0 938.9 -1.6 67
2020-01-24 14:00:00 10 6 Sur 15 Sur 0 939.3 -0.8 63
2020-01-24 13:00:00 9.2 7 Sur 17 Sur 0 940.1 0.1 71
2020-01-24 12:00:00 9.3 7 Sudeste 18 Sur 0 940.5 0.9 71
2020-01-24 11:00:00 8.2 4 Sur 11 Sur 0 940.1 0.9 76
2020-01-24 10:00:00 5.9 5 Sur 8 Sur 0 940 1.2 86
2020-01-24 09:00:00 5.4 4 Sudeste 9 Este 0 939.6 1.1 86
2020-01-24 08:00:00 5.4 6 Este 9 Este 0 939.2 0.7 87
2020-01-24 07:00:00 5.4 6 Este 11 Este 0 938.8 0.2 88
2020-01-24 06:00:00 5.3 6 Este 9 Este 0 938.5 0 90
2020-01-24 05:00:00 5.6 7 Sudeste 9 Sudeste 0 938.5 0 90
2020-01-24 04:00:00 5.8 4 Este 5 Este 0 938.6 0 90
2020-01-24 03:00:00 5.9 4 Este 8 Sudeste 0.2 938.5 -0.2 90
2020-01-24 02:00:00 5.9 6 Este 13 Este 0 938.5 0.2 89
2020-01-24 01:00:00 6.2 7 Sudeste 13 Este 0 938.6 0.6 88
2020-01-24 00:00:00 6.5 8 Sudeste 24 Sudeste 0 938.7 1.1 86
2020-01-23 23:00:00 6.5 9 Sudeste 20 Sudeste 0 938.3 1.1 86
2020-01-23 22:00:00 6.4 9 Este 16 Este 0.2 938 1 87
2020-01-23 21:00:00 6.4 5 Sudeste 17 Este 0 937.6 1.1 84
2020-01-23 20:00:00 6.7 8 Sudeste 19 Este 0 937.2 0.8 82
2020-01-23 19:00:00 7 14 Este 22 Este 0 937 0.7 78
2020-01-23 18:00:00 7.2 12 Este 28 Sudeste 0 936.5 0 78
2020-01-23 17:00:00 7.7 19 Este 30 Este 0 936.4 -0.6 74
2020-01-23 16:00:00 7.8 15 Sudeste 26 Sudeste 0 936.3 -1.2 75
2020-01-23 15:00:00 7.5 17 Sudeste 27 Sudeste 0 936.5 -1.5 78
2020-01-23 14:00:00 7 11 Este 22 Este 0 937 -0.6 81
2020-01-23 13:00:00 6.5 14 Este 21 Este 0 937.5 0.4 82
2020-01-23 12:00:00 6.1 10 Este 17 Este 0.2 938 1.5 83
2020-01-23 11:00:00 5.5 5 Nordeste 12 Este 0.2 937.6 1.6 87
2020-01-23 10:00:00 4.9 6 Sur 10 Sur 0 937.1 1.2 89
2020-01-23 09:00:00 3.3 5 Noroeste 9 Oeste 0 936.5 0.7 89
2020-01-23 08:00:00 3.7 3 Noroeste 9 Noroeste 0 936 -0.3 88
2020-01-23 07:00:00 3.6 3 Norte 7 Noroeste 0 935.9 -0.5 88
2020-01-23 06:00:00 3.7 0 Calma 9 Este 0.2 935.8 -0.6 87
2020-01-23 05:00:00 3.4 5 Este 8 Este 0 936.3 -0.4 86
2020-01-23 04:00:00 3.7 5 Sudoeste 8 Sudoeste 0 936.4 -0.7 82
2020-01-23 03:00:00 3.9 3 Sur 9 Sudoeste 0 936.4 -0.8 81
2020-01-23 02:00:00 4 2 Este 9 Este 0 936.7 -0.5 79
2020-01-23 01:00:00 4.1 2 Este 15 Sur 0 937.1 -0.2 79
2020-01-23 00:00:00 4.6 5 Sur 12 Este 0 937.2 0 75
2020-01-22 23:00:00 4.7 9 Este 19 Este 0 937.2 0.6 73
2020-01-22 22:00:00 5 11 Este 17 Este 0 937.3 0.8 73
2020-01-22 21:00:00 5.3 8 Este 20 Este 0 937.2 0.5 72
2020-01-22 20:00:00 6.7 17 Nordeste 23 Nordeste 0 936.6 0 68
2020-01-22 19:00:00 7.3 9 Este 13 Este 0 936.5 0 65
2020-01-22 18:00:00 8.3 4 Este 15 Nordeste 0 936.7 -0.2 64
2020-01-22 17:00:00 9.3 5 Sudoeste 9 Sudoeste 0 936.6 -0.9 58
2020-01-22 16:00:00 10 5 Sudeste 14 Nordeste 0 936.5 -1.9 56
2020-01-22 15:00:00 9 8 Este 25 Nordeste 0 936.9 -1.9 59
2020-01-22 14:00:00 8.6 17 Este 36 Nordeste 0 937.5 -1.5 63
2020-01-22 13:00:00 6.9 24 Nordeste 39 Nordeste 0 938.4 -0.2 68
2020-01-22 12:00:00 6.9 20 Este 35 Nordeste 0 938.8 0.7 68
2020-01-22 11:00:00 5.8 21 Nordeste 33 Nordeste 0 939 1.3 71
2020-01-22 10:00:00 4.1 16 Nordeste 37 Este 0 938.6 0.8 78
2020-01-22 09:00:00 4.2 29 Nordeste 53 Nordeste 0 938.1 0.3 78
2020-01-22 08:00:00 4.2 30 Nordeste 53 Este 0 937.7 -0.3 78
2020-01-22 07:00:00 4.1 22 Este 44 Este 0 937.8 -0.5 79
2020-01-22 06:00:00 4 20 Este 46 Este 0 937.8 -0.5 78
2020-01-22 05:00:00 4.1 27 Este 43 Nordeste 0 938 -0.3 77
2020-01-22 04:00:00 4.2 22 Este 51 Nordeste 0 938.3 -0.5 76
2020-01-22 03:00:00 4.4 28 Nordeste 49 Este 0 938.3 -0.1 75
2020-01-22 02:00:00 4.3 36 Nordeste 53 Nordeste 0 938.3 -0.4 75
2020-01-22 01:00:00 4.3 28 Nordeste 46 Este 0 938.8 0.2 75
2020-01-22 00:00:00 4.3 33 Nordeste 49 Nordeste 0 938.4 -0.1 75
2020-01-21 23:00:00 4.2 27 Nordeste 46 Nordeste 0 938.7 0.2 75
2020-01-21 22:00:00 4.2 18 Nordeste 47 Nordeste 0 938.6 0.2 74
2020-01-21 21:00:00 4.5 25 Nordeste 53 Este 0 938.5 0.1 73
2020-01-21 20:00:00 5.1 22 Nordeste 49 Nordeste 0 938.5 0.3 70
2020-01-21 19:00:00 5.3 30 Nordeste 49 Nordeste 0 938.4 0.2 68
2020-01-21 18:00:00 5.7 18 Nordeste 43 Nordeste 0 938.4 -0.2 67
2020-01-21 17:00:00 6 29 Nordeste 49 Nordeste 0 938.2 -1.7 64
2020-01-21 16:00:00 5.8 19 Nordeste 59 Nordeste 0 938.2 -2.8 66
2020-01-21 15:00:00 6 32 Nordeste 57 Nordeste 0 938.6 -2.9 66
2020-01-21 14:00:00 4.9 29 Nordeste 49 Nordeste 0 939.9 -2.9 65
2020-01-21 13:00:00 4.4 29 Nordeste 64 Nordeste 0 941 -2 63
2020-01-21 12:00:00 4.1 30 Nordeste 46 Nordeste 0 941.5 -1.4 63
2020-01-21 11:00:00 1.8 17 Nordeste 27 Nordeste 0 942.8 0.1 71
2020-01-21 10:00:00 0.8 9 Norte 31 Nordeste 0 943 0.3 74
2020-01-21 09:00:00 0 17 Nordeste 41 Nordeste 0 942.9 -0.3 76
2020-01-21 08:00:00 0.6 30 Nordeste 51 Nordeste 0 942.7 -1.1 74
2020-01-21 07:00:00 0.7 29 Nordeste 46 Nordeste 0 942.7 -1.7 74
2020-01-21 06:00:00 1.1 24 Este 39 Este 0 943.2 -0.3 73
2020-01-21 05:00:00 0.9 19 Nordeste 40 Nordeste 0 943.8 -0.5 74
2020-01-21 04:00:00 0.8 30 Nordeste 69 Nordeste 0 944.4 -0.5 74
2020-01-21 03:00:00 0.8 39 Nordeste 62 Este 0 943.5 -1.3 76
2020-01-21 02:00:00 0.8 23 Este 54 Nordeste 0 944.3 -0.4 76
2020-01-21 01:00:00 0.9 30 Este 62 Este 0 944.9 0.5 77
2020-01-21 00:00:00 1 34 Nordeste 64 Nordeste 0 944.8 1.2 75
2020-01-20 23:00:00 1.2 26 Este 51 Nordeste 0 944.7 1.3 69
2020-01-20 22:00:00 1.9 31 Este 64 Este 0 944.4 2 62
2020-01-20 21:00:00 2.2 38 Este 76 Nordeste 0 943.6 1.2 60
2020-01-20 20:00:00 2.7 39 Nordeste 77 Nordeste 0 943.4 0.7 57
2020-01-20 19:00:00 2.9 49 Nordeste 81 Nordeste 0 942.4 -0.9 56
2020-01-20 18:00:00 3.9 45 Nordeste 74 Este 0 942.4 -1.7 50
2020-01-20 17:00:00 4 39 Nordeste 64 Este 0 942.7 -2 51
2020-01-20 16:00:00 4.1 33 Nordeste 58 Nordeste 0 943.3 -2.2 49
2020-01-20 15:00:00 3.6 28 Nordeste 65 Nordeste 0 944.1 -2.5 48
2020-01-20 14:00:00 3.6 33 Nordeste 73 Nordeste 0 944.7 -1.8 51
2020-01-20 13:00:00 3.2 34 Nordeste 70 Nordeste 0 945.5 -0.6 50
2020-01-20 12:00:00 2.9 33 Este 71 Este 0 946.6 1.8 51
2020-01-20 11:00:00 1.5 26 Este 58 Este 0 946.5 1.1 58
2020-01-20 10:00:00 1.3 28 Este 77 Nordeste 0 946.1 0.6 60
2020-01-20 09:00:00 0.6 38 Nordeste 80 Nordeste 0 944.8 -0.5 64
2020-01-20 08:00:00 0.6 42 Nordeste 68 Este 0 945.4 -0.3 66
2020-01-20 07:00:00 0.8 38 Nordeste 77 Nordeste 0 945.5 -0.8 64
2020-01-20 06:00:00 1 51 Nordeste 84 Nordeste 0 945.3 -1.9 60
2020-01-20 05:00:00 1.3 54 Nordeste 83 Nordeste 0 945.7 -1.9 61
2020-01-20 04:00:00 1.6 55 Nordeste 86 Nordeste 0 946.3 -1.3 58
2020-01-20 03:00:00 1.8 54 Nordeste 80 Nordeste 0 947.2 -1.1 58
2020-01-20 02:00:00 2.1 51 Nordeste 79 Nordeste 0 947.6 -0.9 61
2020-01-20 01:00:00 2.2 50 Nordeste 82 Nordeste 0 947.6 -1.5 61
2020-01-20 00:00:00 2.5 50 Nordeste 79 Nordeste 0 948.3 -0.3 56
2020-01-19 23:00:00 2.8 49 Nordeste 78 Nordeste 0 948.5 0.4 52
2020-01-19 22:00:00 3 43 Nordeste 73 Nordeste 0 949.1 1.4 52
2020-01-19 21:00:00 3.6 44 Nordeste 76 Nordeste 0 948.6 1.7 47
2020-01-19 20:00:00 4.3 38 Nordeste 63 Nordeste 0 948.1 2 44
2020-01-19 19:00:00 5.4 41 Nordeste 73 Nordeste 0 947.7 1.4 38
2020-01-19 18:00:00 7 44 Nordeste 76 Nordeste 0 946.9 0.8 36
2020-01-19 17:00:00 8.5 44 Nordeste 81 Nordeste 0 946.1 -0.6 30
2020-01-19 16:00:00 9.6 40 Nordeste 67 Nordeste 0 946.3 -1 37
2020-01-19 15:00:00 9.5 37 Nordeste 74 Nordeste 0 946.1 -1.5 39
2020-01-19 14:00:00 9 29 Nordeste 57 Norte 0 946.7 -0.2 49
2020-01-19 13:00:00 8.4 26 Nordeste 52 Norte 0 947.3 1.2 62
2020-01-19 12:00:00 7.4 23 Nordeste 47 Norte 0 947.6 2.5 67
2020-01-19 11:00:00 7.1 15 Norte 31 Nordeste 0 946.9 2.6 73
2020-01-19 10:00:00 6.1 10 Norte 19 Nordeste 0 946.1 3 82
2020-01-19 09:00:00 4.2 12 Norte 24 Norte 0 945.1 2.2 91
2020-01-19 08:00:00 3.5 11 Noroeste 21 Noroeste 0 944.3 1.3 91
2020-01-19 07:00:00 4 11 Noroeste 21 Noroeste 0 943.1 -0.1 91
2020-01-19 06:00:00 4.7 12 Noroeste 29 Norte 0 942.9 0 89
2020-01-19 05:00:00 5.8 14 Noroeste 27 Noroeste 0 943 -0.1 89
2020-01-19 04:00:00 6.3 14 Noroeste 25 Norte 0 943.2 0 89
2020-01-19 03:00:00 6.2 8 Noroeste 21 Noroeste 0 942.9 -0.2 88
2020-01-19 02:00:00 6.1 11 Noroeste 22 Norte 0 943.1 0 87
2020-01-19 01:00:00 6 8 Noroeste 20 Oeste 0 943.2 -0.1 86
2020-01-19 00:00:00 5.6 10 Oeste 19 Oeste 0 943.1 -0.1 85
2020-01-18 23:00:00 5.3 10 Oeste 19 Oeste 0 943.1 0.2 82
2020-01-18 22:00:00 5.7 8 Oeste 30 Noroeste 0 943.3 0.9 84
2020-01-18 21:00:00 6.8 13 Noroeste 57 Noroeste 1 943.2 0.8 85
2020-01-18 20:00:00 9.4 17 Oeste 39 Oeste 0 942.9 0.5 74
2020-01-18 19:00:00 10.3 21 Oeste 36 Oeste 0 942.4 -0.5 68
2020-01-18 18:00:00 11.1 13 Sudoeste 34 Sudoeste 0 942.4 -0.9 73
2020-01-18 17:00:00 11.9 18 Sudoeste 39 Sudoeste 0 942.4 -1.7 71
2020-01-18 16:00:00 12.4 23 Sudoeste 38 Sudoeste 0 942.9 -2.5 71
2020-01-18 15:00:00 13 19 Sudoeste 40 Sudoeste 0 943.3 -3 71
2020-01-18 14:00:00 11.5 19 Sur 38 Sur 0 944.1 -2.2 74
2020-01-18 13:00:00 10.9 19 Sur 37 Sur 0 945.4 -0.7 75
2020-01-18 12:00:00 10.3 17 Sur 31 Sur 0 946.3 0.3 78
2020-01-18 11:00:00 9.6 18 Sur 32 Sur 0 946.3 0.1 80
2020-01-18 10:00:00 8.3 14 Sur 27 Sur 0 946.1 -0.5 86
2020-01-18 09:00:00 7.7 14 Sur 35 Sur 0 946 -1.9 87
2020-01-18 08:00:00 7.4 14 Sur 27 Sudeste 0 946.2 -2.5 89
2020-01-18 07:00:00 6.8 18 Sudeste 28 Sudeste 0.6 946.6 -2.4 91
2020-01-18 06:00:00 6.7 14 Sudeste 22 Este 1.2 947.9 -0.9 90
2020-01-18 05:00:00 6.9 14 Este 19 Este 2.4 948.7 -0.7 89
2020-01-18 04:00:00 6.5 4 Este 7 Nordeste 2.6 949 -1.1 87
2020-01-18 03:00:00 6.2 5 Este 8 Este 0.4 948.8 -2.1 85
2020-01-18 02:00:00 6 5 Este 10 Sudeste 0 949.4 -1.4 84
2020-01-18 01:00:00 5.6 7 Sudeste 10 Sudeste 0 950.1 -1 84
2020-01-18 00:00:00 6 4 Sudoeste 10 Sudoeste 0 950.9 -0.4 80
2020-01-17 23:00:00 5.7 3 Este 12 Sur 0 950.8 -0.8 82
2020-01-17 22:00:00 5.9 5 Sudeste 9 Sur 0 951.1 -0.3 80
2020-01-17 21:00:00 6.2 7 Este 19 Sudeste 0 951.3 0.5 77
2020-01-17 20:00:00 6.7 4 Sudeste 10 Nordeste 0 951.6 1.2 72
2020-01-17 19:00:00 7.9 4 Norte 8 Noroeste 0 951.4 0.7 64
2020-01-17 18:00:00 10.7 2 Norte 10 Norte 0 950.8 0.1 54
2020-01-17 17:00:00 11.6 7 Noroeste 19 Oeste 0 950.4 -0.3 49
2020-01-17 16:00:00 12 8 Noroeste 23 Oeste 0 950.7 -0.7 47
2020-01-17 15:00:00 11.4 12 Oeste 27 Noroeste 0 950.7 -1.2 53
2020-01-17 14:00:00 11.4 11 Oeste 29 Oeste 0 950.7 -0.5 51
2020-01-17 13:00:00 10.9 12 Oeste 24 Sudoeste 0 951.4 0.9 57
2020-01-17 12:00:00 9.1 8 Oeste 21 Noroeste 0 951.9 1.8 75
2020-01-17 11:00:00 7.9 6 Oeste 17 Oeste 0 951.2 1.9 84
2020-01-17 10:00:00 7.7 9 Oeste 21 Oeste 0 950.5 2.2 88
2020-01-17 09:00:00 7 11 Oeste 21 Oeste 0 950.1 2.6 90
2020-01-17 08:00:00 6.9 6 Oeste 19 Sudoeste 0.4 949.3 2 90
2020-01-17 07:00:00 6.4 4 Sudoeste 15 Sur 0.8 948.3 1 89
2020-01-17 06:00:00 6 6 Sudeste 10 Sudoeste 0.4 947.5 0.6 89
2020-01-17 05:00:00 5.9 4 Sur 13 Oeste 0 947.3 0.7 88
2020-01-17 04:00:00 5.2 4 Noroeste 11 Sudoeste 0 947.3 1 88
2020-01-17 03:00:00 5.5 5 Oeste 18 Sudoeste 0 946.9 1 85
2020-01-17 02:00:00 5.8 11 Sudoeste 19 Sudoeste 0 946.6 1.3 88
2020-01-17 01:00:00 5.7 8 Sur 17 Sudoeste 0 946.3 0.7 87
2020-01-17 00:00:00 6.7 9 Sur 20 Sudoeste 0 945.9 1 85
2020-01-16 23:00:00 7.5 10 Sur 18 Oeste 0 945.3 1.5 85
2020-01-16 22:00:00 8.4 11 Sudoeste 28 Sudoeste 0 945.6 2.1 84
2020-01-16 21:00:00 9 12 Sudoeste 39 Sur 0.2 944.9 1.9 82
2020-01-16 20:00:00 9.2 17 Sur 35 Sudoeste 0.2 943.8 0.9 80
2020-01-16 19:00:00 9.7 21 Sur 51 Sur 0.4 943.5 0.2 75
2020-01-16 18:00:00 10.2 20 Sur 44 Sur 0 943 -0.7 69
2020-01-16 17:00:00 10.9 20 Sur 43 Sudeste 0 942.9 -1.6 65
2020-01-16 16:00:00 11.2 23 Sur 46 Sur 0 943.3 -1.9 64
2020-01-16 15:00:00 12.1 22 Sur 50 Sur 0 943.7 -2.2 60
2020-01-16 14:00:00 11.7 24 Sur 53 Sudoeste 0 944.5 -1.3 61
2020-01-16 13:00:00 11.8 28 Sur 48 Sur 0 945.2 -0.2 61
2020-01-16 12:00:00 10.7 22 Sur 44 Sur 0 945.9 0.9 69
2020-01-16 11:00:00 11 16 Sur 37 Sudeste 0 945.8 1.3 70
2020-01-16 10:00:00 9.6 14 Sur 32 Sur 0 945.4 1 78
2020-01-16 09:00:00 8.8 18 Sur 36 Sur 0 945 0.6 84
2020-01-16 08:00:00 9.2 15 Sur 37 Sudeste 0 944.5 -0.3 86
2020-01-16 07:00:00 9 18 Sur 32 Sur 0 944.4 -0.5 86
2020-01-16 06:00:00 9.1 17 Sur 27 Sur 0 944.4 -0.7 87
2020-01-16 05:00:00 9.1 17 Sur 32 Sudeste 0 944.8 -0.5 88
2020-01-16 04:00:00 9.2 16 Sur 30 Sur 0 944.9 -0.5 87
2020-01-16 03:00:00 9.2 14 Sur 28 Sur 0 945.1 -0.3 88
2020-01-16 02:00:00 9.1 16 Sur 31 Sur 0 945.3 0.2 89
2020-01-16 01:00:00 9.2 14 Sur 30 Sur 0 945.4 0.3 88
2020-01-16 00:00:00 9.1 17 Sur 30 Sur 0 945.4 0.4 88
2020-01-15 23:00:00 9.1 15 Sur 28 Sur 0 945.1 0.5 87
2020-01-15 22:00:00 9.1 11 Sudeste 22 Sur 0 945.1 0.8 87
2020-01-15 21:00:00 9.3 13 Sur 23 Sudeste 0 945 1.4 84
2020-01-15 20:00:00 9.5 14 Sur 26 Sur 0 944.6 1.2 85
2020-01-15 19:00:00 9.3 12 Sur 28 Sur 0.2 944.3 1.5 85
2020-01-15 18:00:00 9.9 16 Sur 29 Sur 0 943.6 1.1 81
2020-01-15 17:00:00 10.4 14 Sur 28 Sudeste 0 943.4 0.8 78
2020-01-15 16:00:00 10.5 17 Sur 32 Sur 0 942.8 -0.1 80
2020-01-15 15:00:00 11 17 Sur 36 Sur 0 942.5 -0.6 75
2020-01-15 14:00:00 11 20 Sur 36 Sur 0 942.6 0 76
2020-01-15 13:00:00 10.9 17 Sur 33 Sur 0 942.9 1.5 78
2020-01-15 12:00:00 8.6 13 Sur 25 Sudeste 0.2 943.1 2.8 87
2020-01-15 11:00:00 7.5 9 Sudeste 27 Sur 1 942.6 2.7 87
2020-01-15 10:00:00 7.3 14 Sur 34 Sudeste 0 941.4 2.2 85
2020-01-15 09:00:00 7.2 19 Sur 35 Sudeste 0 940.3 1.3 84
2020-01-15 08:00:00 7.1 19 Sur 36 Sur 0 939.9 0.9 84
2020-01-15 07:00:00 6.9 17 Sur 37 Sur 0 939.2 -0.3 83
2020-01-15 06:00:00 7.3 17 Sur 41 Sur 0 939 -0.9 86
2020-01-15 05:00:00 7.9 24 Sur 50 Sur 0 939 -1.1 81
2020-01-15 04:00:00 8 27 Sur 49 Sur 0.2 939.5 -0.5 80
2020-01-15 03:00:00 8.3 22 Sur 45 Sur 0 939.9 -0.4 77
2020-01-15 02:00:00 8 18 Sur 50 Sur 0 940.1 -0.1 78
2020-01-15 01:00:00 8.1 22 Sur 43 Sudoeste 0 940 -0.4 80
2020-01-15 00:00:00 7.9 23 Sur 53 Sur 0 940.3 -0.2 83
2020-01-14 23:00:00 7.1 19 Sur 35 Sur 0 940.2 -0.4 87
2020-01-14 22:00:00 6.6 16 Sur 35 Sur 0.2 940.4 -0.3 86
2020-01-14 21:00:00 6.4 16 Sur 29 Sur 0 940.5 0.1 85
2020-01-14 20:00:00 6.4 18 Sur 33 Sudeste 0 940.6 0.2 83
2020-01-14 19:00:00 6.3 13 Sur 34 Sur 0 940.7 0.3 81
2020-01-14 18:00:00 6.9 16 Sur 29 Sur 0 940.4 -0.2 76
2020-01-14 17:00:00 7.2 13 Sur 32 Sur 0 940.4 -1.1 75
2020-01-14 16:00:00 7 22 Sur 41 Sur 0 940.4 -1.9 75
2020-01-14 15:00:00 6.5 16 Sur 32 Sur 0 940.6 -2.2 77
2020-01-14 14:00:00 6 17 Sur 28 Sur 0 941.5 -1.3 77
2020-01-14 13:00:00 6.3 11 Sur 23 Sur 0 942.3 -0.1 76
2020-01-14 12:00:00 6.1 10 Sur 23 Sudeste 0 942.8 0.7 76
2020-01-14 11:00:00 5.5 7 Sur 12 Sur 0 942.8 0.8 76
2020-01-14 10:00:00 4.3 7 Sur 12 Sur 0 942.4 0.9 82
2020-01-14 09:00:00 2.8 5 Sur 8 Sur 0 942.1 0.6 87
2020-01-14 08:00:00 1.4 5 Este 9 Este 0 942 0 88
2020-01-14 07:00:00 0.8 7 Este 11 Este 0 941.5 -1.1 87
2020-01-14 06:00:00 1.3 7 Este 14 Este 0 941.5 -1.3 86
2020-01-14 05:00:00 2.4 8 Este 14 Sudeste 0 942 -1 84
2020-01-14 04:00:00 3.9 9 Sudeste 18 Sudoeste 0 942.6 -0.9 79
2020-01-14 03:00:00 4.3 8 Sudoeste 15 Sudoeste 0 942.8 -1.2 77
2020-01-14 02:00:00 3.5 4 Este 13 Sur 0 943 -1.1 81
2020-01-14 01:00:00 3.7 5 Sur 14 Sur 0 943.5 -0.9 80
2020-01-14 00:00:00 3.7 6 Sur 15 Sur 0 944 -0.2 79
2020-01-13 23:00:00 3.8 7 Sur 15 Sur 0 944.1 0.7 79
2020-01-13 22:00:00 2.2 3 Oeste 14 Sur 0 944.4 1 81
2020-01-13 21:00:00 2.7 6 Sudoeste 13 Oeste 0 944.2 1.3 77
2020-01-13 20:00:00 3.7 6 Sur 23 Sur 0 943.4 0.6 71
2020-01-13 19:00:00 5 9 Sur 21 Sur 0 943.4 0.2 64
2020-01-13 18:00:00 7.8 9 Sur 24 Sudoeste 0 942.9 -0.7 57
2020-01-13 17:00:00 10.2 13 Sur 25 Sur 0 942.8 -1.6 46
2020-01-13 16:00:00 11.3 13 Sur 26 Sur 0 943.2 -2.6 45
2020-01-13 15:00:00 11.2 14 Sur 26 Sur 0 943.6 -3.2 45
2020-01-13 14:00:00 8.9 9 Sudeste 19 Sudeste 0 944.4 -2.2 59
2020-01-13 13:00:00 7.3 9 Sur 20 Sur 0 945.8 -0.5 65
2020-01-13 12:00:00 5 4 Sudoeste 12 Noroeste 0 946.8 0.9 81
2020-01-13 11:00:00 0.2 8 Noroeste 14 Norte 0 946.6 0.8 91
2020-01-13 10:00:00 -2.8 6 Noroeste 9 Noroeste 0 946.3 0.7 91
2020-01-13 09:00:00 -3.9 4 Noroeste 8 Oeste 0 945.9 0 91
2020-01-13 08:00:00 -4 2 Oeste 10 Sudeste 0 945.8 -0.9 91
2020-01-13 07:00:00 -3.8 3 Sudeste 6 Sudeste 0 945.6 -1.7 91
2020-01-13 06:00:00 -3.8 3 Sudeste 7 Sudeste 0 945.9 -1.7 91
2020-01-13 05:00:00 -3.8 4 Noroeste 13 Sudoeste 0 946.7 -1.4 91
2020-01-13 04:00:00 -3 2 Sur 4 Sudeste 0 947.3 -1.4 91
2020-01-13 03:00:00 -2.5 4 Sudeste 7 Sudeste 0 947.6 -1.5 91
2020-01-13 02:00:00 -2.4 6 Sudeste 8 Sudeste 0 948.1 -0.8 90
2020-01-13 01:00:00 -1.4 2 Sudeste 7 Este 0 948.7 -0.5 89
2020-01-13 00:00:00 -0.8 5 Este 6 Este 0 949.1 -0.5 89
2020-01-12 23:00:00 0 5 Sudeste 9 Este 0 948.9 -0.9 87
2020-01-12 22:00:00 1 4 Este 6 Este 0 949.2 -0.5 86
2020-01-12 21:00:00 2.6 5 Oeste 13 Norte 0 949.6 0.3 82
2020-01-12 20:00:00 3.3 9 Norte 13 Noroeste 0 949.8 0.6 78
2020-01-12 19:00:00 5.3 6 Noroeste 12 Noroeste 0 949.7 0.5 73
2020-01-12 18:00:00 8.5 8 Noroeste 16 Norte 0 949.3 -0.2 61
2020-01-12 17:00:00 10.8 8 Noroeste 19 Norte 0 949.2 -1.1 49
2020-01-12 16:00:00 11.7 4 Norte 11 Norte 0 949.2 -2.3 48
2020-01-12 15:00:00 11.1 3 Nordeste 10 Oeste 0 949.5 -2.8 49
2020-01-12 14:00:00 9.8 3 Noroeste 11 Oeste 0 950.3 -1.9 54
2020-01-12 13:00:00 7 4 Noroeste 9 Noroeste 0 951.5 -0.2 63
2020-01-12 12:00:00 3.7 0 Calma 11 Sudeste 0 952.3 1.2 73
2020-01-12 11:00:00 0.4 8 Sudeste 11 Sudeste 0 952.2 1.3 82
2020-01-12 10:00:00 -2 5 Norte 9 Noroeste 0 951.7 0.9 90
2020-01-12 09:00:00 -4.4 3 Norte 6 Noroeste 0 951.1 0.4 91
2020-01-12 08:00:00 -4.1 4 Sur 9 Sudeste 0 950.9 0 91
2020-01-12 07:00:00 -4.6 6 Sudeste 8 Sudeste 0 950.8 -0.5 91
2020-01-12 06:00:00 -3.9 4 Sudeste 9 Sudeste 0 950.7 -0.6 91
2020-01-12 05:00:00 -3.7 3 Norte 9 Sudeste 0 950.9 -0.4 91
2020-01-12 04:00:00 -3.1 8 Sudeste 11 Este 0 951.3 -0.1 91
2020-01-12 03:00:00 -2.3 5 Sudeste 8 Sudeste 0 951.3 -0.2 91
2020-01-12 02:00:00 -1.9 5 Este 10 Este 0 951.3 -0.1 90
2020-01-12 01:00:00 -0.6 6 Este 8 Este 0 951.4 0 90
2020-01-12 00:00:00 -0.7 5 Este 8 Este 0 951.5 0.2 89
2020-01-11 23:00:00 -0.1 6 Sudeste 8 Sudeste 0 951.4 0.2 86
2020-01-11 22:00:00 1.6 5 Sudeste 7 Sudeste 0 951.4 0.7 83
2020-01-11 21:00:00 2.6 3 Sur 8 Norte 0 951.3 1 79
2020-01-11 20:00:00 3.6 6 Norte 10 Norte 0 951.2 1 75
2020-01-11 19:00:00 5.4 8 Norte 13 Noroeste 0 950.7 0.6 69
2020-01-11 18:00:00 10 7 Oeste 12 Noroeste 0 950.3 0.1 51
2020-01-11 17:00:00 11.5 2 Este 6 Este 0 950.2 -0.6 40
2020-01-11 16:00:00 10.8 4 Este 9 Sudeste 0 950.1 -1.7 50
2020-01-11 15:00:00 9.9 4 Sudeste 11 Este 0 950.2 -2.7 55
2020-01-11 14:00:00 8.7 3 Sudeste 13 Sudeste 0 950.8 -2 60
2020-01-11 13:00:00 7.8 6 Sur 13 Sur 0 951.8 -0.4 61
2020-01-11 12:00:00 4.5 5 Sudoeste 10 Oeste 0 952.9 1.1 72
2020-01-11 11:00:00 1.6 2 Noroeste 6 Sudeste 0 952.8 1 80
2020-01-11 10:00:00 -0.9 4 Sudeste 10 Noroeste 0 952.2 0.5 89
2020-01-11 09:00:00 -3.2 0 Calma 8 Este 0 951.8 0.5 91
2020-01-11 08:00:00 -3 4 Este 6 Sudeste 0 951.8 0.5 90
2020-01-11 07:00:00 -2.3 3 Sudeste 7 Sur 0 951.7 0.2 88
2020-01-11 06:00:00 -0.9 4 Norte 12 Oeste 0 951.3 -0.3 88
2020-01-11 05:00:00 0 6 Oeste 16 Nordeste 0 951.3 -0.4 84
2020-01-11 04:00:00 2 8 Sudeste 19 Nordeste 0 951.5 -0.4 77
2020-01-11 03:00:00 2.5 10 Este 20 Sudeste 0 951.6 -0.3 78
2020-01-11 02:00:00 2 3 Sudeste 9 Norte 0 951.7 0 79
2020-01-11 01:00:00 1.8 6 Sur 23 Nordeste 0 951.9 0.1 79
2020-01-11 00:00:00 3.5 18 Nordeste 23 Nordeste 0 951.9 0.5 76
2020-01-10 23:00:00 3.4 17 Nordeste 23 Nordeste 0 951.7 0.5 76
2020-01-10 22:00:00 3.4 10 Nordeste 21 Este 0 951.8 1 78
2020-01-10 21:00:00 4.1 13 Este 22 Nordeste 0 951.4 1 73
2020-01-10 20:00:00 5.2 15 Nordeste 23 Nordeste 0 951.2 1.6 68
2020-01-10 19:00:00 6 17 Nordeste 26 Nordeste 0 950.8 1.3 64
2020-01-10 18:00:00 7.3 14 Nordeste 31 Nordeste 0 950.4 0.7 58
2020-01-10 17:00:00 8.5 24 Nordeste 39 Este 0 949.6 -0.2 52
2020-01-10 16:00:00 9.1 24 Nordeste 36 Este 0 949.5 -0.6 51
2020-01-10 15:00:00 8.8 23 Nordeste 37 Nordeste 0 949.7 -1.3 52
2020-01-10 14:00:00 8.5 19 Nordeste 33 Este 0 949.8 -1 54
2020-01-10 13:00:00 7.6 21 Nordeste 31 Nordeste 0 950.1 -0.2 60
2020-01-10 12:00:00 6.8 17 Nordeste 29 Nordeste 0 951 1.2 62
2020-01-10 11:00:00 2.9 5 Oeste 10 Oeste 0 950.8 1.4 85
2020-01-10 10:00:00 1.4 3 Sur 9 Noroeste 0 950.3 1.5 91
2020-01-10 09:00:00 -0.9 4 Norte 14 Nordeste 0 949.8 1.6 91
2020-01-10 08:00:00 0.2 2 Noroeste 6 Este 0 949.4 1.1 90
2020-01-10 07:00:00 -0.3 3 Sur 21 Norte 0 948.8 0 89
2020-01-10 06:00:00 -0.1 8 Noroeste 13 Norte 0 948.2 -0.4 89
2020-01-10 05:00:00 0.7 2 Norte 8 Noroeste 0 948.3 -0.3 89
2020-01-10 04:00:00 0.9 0 Calma 9 Oeste 0 948.8 -0.3 87
2020-01-10 03:00:00 1.8 4 Oeste 12 Noroeste 0 948.6 -0.2 84
2020-01-10 02:00:00 3 5 Noroeste 21 Norte 0 948.6 0.2 82
2020-01-10 01:00:00 4.3 11 Norte 28 Norte 0 949.1 1.1 79
2020-01-10 00:00:00 4.5 6 Norte 14 Noroeste 0 948.8 1.1 86
2020-01-09 23:00:00 4.7 2 Norte 11 Noroeste 0 948.4 0.9 84
2020-01-09 22:00:00 5.2 7 Norte 17 Noroeste 0 948 0.9 85
2020-01-09 21:00:00 6.3 10 Oeste 16 Oeste 0 947.7 1.3 83
2020-01-09 20:00:00 7.7 5 Oeste 24 Noroeste 0 947.5 1.4 84
2020-01-09 19:00:00 9.6 14 Noroeste 42 Noroeste 0 947.1 1.5 81
2020-01-09 18:00:00 11.6 17 Oeste 35 Oeste 0 946.4 0.7 76
2020-01-09 17:00:00 12.6 17 Oeste 41 Oeste 0 946.1 -1.2 73
2020-01-09 16:00:00 12.2 4 Oeste 13 Este 0 945.6 -2.4 81
2020-01-09 15:00:00 9.8 10 Sudeste 18 Sudeste 0 945.7 -3.5 92
2020-01-09 14:00:00 7.2 9 Este 14 Sudeste 0 947.3 -1.7 92
2020-01-09 13:00:00 5.4 7 Sudeste 13 Sudeste 0 948 -0.4 92
2020-01-09 12:00:00 4.4 0 Calma 10 Sudeste 0 949.2 1.1 92
2020-01-09 11:00:00 3.1 3 Sudeste 11 Sudeste 0 949 0.7 93
2020-01-09 10:00:00 0.7 7 Sudeste 10 Este 0 948.4 0.6 93
2020-01-09 09:00:00 -1 8 Este 11 Este 0 948.1 0.1 93
2020-01-09 08:00:00 -1.8 6 Sudeste 11 Sudeste 0 948.3 0.3 93
2020-01-09 07:00:00 -2.2 9 Sudeste 13 Sudeste 0 947.8 -0.8 93
2020-01-09 06:00:00 -2.2 6 Oeste 12 Oeste 0 948 -0.6 93
2020-01-09 05:00:00 -2.2 2 Nordeste 11 Sudeste 0 948 -0.7 94
2020-01-09 04:00:00 -2 4 Sur 8 Noroeste 0 948.6 -0.8 94
2020-01-09 03:00:00 -1.6 7 Oeste 12 Noroeste 0 948.6 -1.4 94
2020-01-09 02:00:00 -1.3 5 Sudeste 12 Sudeste 0 948.7 -1.3 94
2020-01-09 01:00:00 -1.2 6 Sudeste 9 Sudeste 0 949.4 -0.5 94
2020-01-09 00:00:00 -1 2 Noroeste 5 Norte 0 950 0.2 94
2020-01-08 23:00:00 -0.6 2 Este 8 Sudeste 0 950 0.4 94
2020-01-08 22:00:00 0.4 2 Sudeste 8 Sudeste 0 949.9 0.4 93
2020-01-08 21:00:00 0.9 4 Este 8 Sudeste 0 949.8 0.4 93
2020-01-08 20:00:00 1.3 5 Este 9 Este 0 949.6 0.1 93
2020-01-08 19:00:00 1.6 5 Sudeste 9 Sudeste 0 949.5 0.1 93
2020-01-08 18:00:00 2.1 5 Sudeste 9 Sudeste 0 949.4 -0.1 93
2020-01-08 17:00:00 2.4 3 Sur 7 Sudoeste 0 949.5 -0.6 93
2020-01-08 16:00:00 2.2 5 Oeste 9 Sudoeste 0 949.4 -1.5 93
2020-01-08 15:00:00 1.4 3 Sur 9 Oeste 0 949.5 -2.2 93
2020-01-08 14:00:00 0.3 5 Oeste 10 Sudoeste 0 950.1 -1.9 93
2020-01-08 13:00:00 -0.7 3 Oeste 9 Noroeste 0 950.9 -0.9 93
2020-01-08 12:00:00 -1.2 0 Calma 8 Noroeste 0 951.7 0.1 93
2020-01-08 11:00:00 -1.8 2 Oeste 8 Oeste 0 952 0.6 93
2020-01-08 10:00:00 -2.1 3 Noroeste 5 Oeste 0 951.8 0.5 93
2020-01-08 09:00:00 -2.3 2 Sudeste 12 Sudeste 0 951.6 0.6 93
2020-01-08 08:00:00 -2.6 2 Sudeste 13 Norte 0 951.4 0.4 93
2020-01-08 07:00:00 -2.7 6 Noroeste 14 Noroeste 0 951.3 0.1 94
2020-01-08 06:00:00 -1.8 8 Noroeste 14 Noroeste 0 951 -0.5 94
2020-01-08 05:00:00 -1.4 2 Noroeste 5 Noroeste 0 951 -0.9 94
2020-01-08 04:00:00 -1.4 2 Norte 6 Noroeste 0 951.2 -1.1 94
2020-01-08 03:00:00 -1.2 4 Sur 7 Sudeste 0 951.5 -1 93
2020-01-08 02:00:00 -1.1 3 Sudeste 8 Sur 0 951.9 -0.6 93
2020-01-08 01:00:00 -1.3 5 Sudeste 9 Sudeste 0 952.3 -0.4 93
2020-01-08 00:00:00 -1.4 2 Sudeste 8 Este 0 952.5 0 93
2020-01-07 23:00:00 -1.2 4 Sudeste 9 Este 0 952.5 0.2 93
2020-01-07 22:00:00 -1 5 Norte 13 Noroeste 0 952.7 0.5 92
2020-01-07 21:00:00 -1.3 8 Noroeste 13 Noroeste 0 952.5 0.5 91
2020-01-07 20:00:00 0.3 6 Noroeste 8 Noroeste 0 952.3 0.4 88
2020-01-07 19:00:00 1.8 2 Sur 7 Sur 0 952.2 0.2 84
2020-01-07 18:00:00 3.4 5 Sudeste 8 Sur 0 952 -0.3 80
2020-01-07 17:00:00 5.6 4 Sur 11 Sur 0 951.9 -0.8 75
2020-01-07 16:00:00 5.2 5 Sudoeste 13 Oeste 0 952 -1.5 79
2020-01-07 15:00:00 2.2 8 Oeste 13 Oeste 0 952.3 -1.7 92
2020-01-07 14:00:00 1 4 Noroeste 10 Norte 0 952.7 -1.6 93
2020-01-07 13:00:00 -0.4 2 Sudoeste 13 Este 0 953.5 -0.4 93
2020-01-07 12:00:00 -0.9 5 Sudeste 11 Sudeste 0 954 0.9 93
2020-01-07 11:00:00 -1.7 4 Norte 9 Norte 0 954.3 1.6 93
2020-01-07 10:00:00 -1.7 4 Norte 8 Nordeste 0 953.9 1.5 93
2020-01-07 09:00:00 -1.9 0 Calma 12 Norte 0 953.1 0.6 93
2020-01-07 08:00:00 -1.7 2 Oeste 10 Norte 0 952.7 0.1 93
2020-01-07 07:00:00 -1.9 3 Este 9 Sudeste 0 952.4 -0.3 93
2020-01-07 06:00:00 -1.5 5 Sudeste 11 Sudeste 0 952.5 0 93
2020-01-07 05:00:00 -1.4 2 Este 9 Este 0 952.6 0.7 93
2020-01-07 04:00:00 -1.6 3 Este 12 Noroeste 0 952.7 0.8 93
2020-01-07 03:00:00 -1.7 6 Noroeste 12 Noroeste 0 952.5 0.7 93
2020-01-07 02:00:00 -2.2 3 Noroeste 8 Noroeste 0 951.9 0.1 92
2020-01-07 01:00:00 -2.5 3 Noroeste 7 Oeste 0 951.9 0.5 92
2020-01-07 00:00:00 -1.5 7 Noroeste 14 Noroeste 0 951.8 0.7 91
2020-01-06 23:00:00 -0.7 3 Noroeste 4 Norte 0 951.8 1 90
2020-01-06 22:00:00 0 3 Este 9 Norte 0 951.4 1 90
2020-01-06 21:00:00 0.6 4 Norte 10 Noroeste 0 951.1 1.3 88
2020-01-06 20:00:00 1.8 3 Nordeste 12 Noroeste 0 950.8 1.4 85
2020-01-06 19:00:00 2.9 6 Noroeste 16 Oeste 0 950.4 1.3 82
2020-01-06 18:00:00 4.6 10 Oeste 18 Noroeste 0 949.8 1.1 77
2020-01-06 17:00:00 7 10 Noroeste 23 Noroeste 0 949.4 0.3 69
2020-01-06 16:00:00 7.2 12 Noroeste 24 Noroeste 0 949.1 -0.7 69
2020-01-06 15:00:00 7.7 7 Noroeste 26 Noroeste 0 948.7 -1.9 69
2020-01-06 14:00:00 6 10 Noroeste 17 Noroeste 0 949.1 -2 72
2020-01-06 13:00:00 3.1 3 Norte 9 Oeste 0 949.8 -1 92
2020-01-06 12:00:00 0.3 6 Sur 14 Sudeste 0 950.6 0.6 93
2020-01-06 11:00:00 -0.3 4 Sudeste 9 Nordeste 0 951.1 1.7 93
2020-01-06 10:00:00 -0.6 4 Oeste 9 Oeste 0 950.8 1.6 93